createdAt,value
2017-04-27T00:00:07.021Z,67.88
2017-04-27T00:00:33.107Z,67.88
2017-04-27T00:00:59.313Z,67.69
2017-04-27T00:01:25.436Z,68.17
2017-04-27T00:01:51.547Z,67.69
2017-04-27T00:02:17.653Z,67.69
2017-04-27T00:02:43.750Z,68.07
2017-04-27T00:03:09.839Z,67.22
2017-04-27T00:03:35.939Z,67.13
2017-04-27T00:04:02.044Z,67.69
2017-04-27T00:04:28.127Z,67.5
2017-04-27T00:04:54.224Z,67.5
2017-04-27T00:05:20.326Z,67.6
2017-04-27T00:05:46.416Z,67.88
2017-04-27T00:06:12.516Z,67.41
2017-04-27T00:06:38.606Z,67.13
2017-04-27T00:07:04.708Z,67.13
2017-04-27T00:07:30.813Z,67.32
2017-04-27T00:07:56.921Z,67.32
2017-04-27T00:08:23.020Z,66.94
2017-04-27T00:08:49.123Z,67.03
2017-04-27T00:09:15.239Z,67.22
2017-04-27T00:09:41.329Z,67.22
2017-04-27T00:10:07.458Z,66.84
2017-04-27T00:10:33.551Z,66.55
2017-04-27T00:10:59.689Z,66.36
2017-04-27T00:11:25.818Z,66.27
2017-04-27T00:11:51.940Z,66.17
2017-04-27T00:12:18.042Z,66.36
2017-04-27T00:12:44.130Z,66.46
2017-04-27T00:13:10.250Z,67.41
2017-04-27T00:13:36.356Z,67.13
2017-04-27T00:14:02.445Z,66.94
2017-04-27T00:14:28.533Z,66.55
2017-04-27T00:14:54.666Z,66.55
2017-04-27T00:15:20.760Z,66.55
2017-04-27T00:15:46.847Z,66.65
2017-04-27T00:16:12.950Z,66.74
2017-04-27T00:16:39.047Z,66.55
2017-04-27T00:17:05.133Z,66.46
2017-04-27T00:17:31.235Z,66.46
2017-04-27T00:17:57.339Z,66.74
2017-04-27T00:18:23.425Z,66.55
2017-04-27T00:18:49.522Z,66.55
2017-04-27T00:19:15.652Z,66.27
2017-04-27T00:19:41.768Z,66.46
2017-04-27T00:20:07.882Z,66.17
2017-04-27T00:20:34.137Z,66.55
2017-04-27T00:21:00.229Z,66.55
2017-04-27T00:21:26.317Z,66.65
2017-04-27T00:21:52.424Z,66.36
2017-04-27T00:22:18.517Z,66.46
2017-04-27T00:22:44.642Z,66.27
2017-04-27T00:23:10.753Z,66.65
2017-04-27T00:23:36.846Z,66.36
2017-04-27T00:24:02.976Z,66.65
2017-04-27T00:24:29.091Z,66.65
2017-04-27T00:24:55.185Z,66.65
2017-04-27T00:25:21.288Z,66.27
2017-04-27T00:25:47.383Z,66.27
2017-04-27T00:26:13.470Z,66.46
2017-04-27T00:26:39.575Z,66.36
2017-04-27T00:27:05.673Z,65.99
2017-04-27T00:27:31.807Z,66.08
2017-04-27T00:27:57.907Z,66.08
2017-04-27T00:28:23.994Z,65.99
2017-04-27T00:28:50.100Z,66.17
2017-04-27T00:29:16.193Z,65.8
2017-04-27T00:29:42.279Z,65.8
2017-04-27T00:30:08.382Z,66.55
2017-04-27T00:30:34.508Z,66.27
2017-04-27T00:31:00.622Z,66.42
2017-04-27T00:31:26.745Z,66.71
2017-04-27T00:31:52.849Z,66.52
2017-04-27T00:32:18.934Z,66.46
2017-04-27T00:32:45.030Z,66.36
2017-04-27T00:33:11.161Z,66.46
2017-04-27T00:33:37.277Z,67.03
2017-04-27T00:34:03.404Z,66.61
2017-04-27T00:34:29.543Z,66.55
2017-04-27T00:34:55.696Z,66.84
2017-04-27T00:35:21.801Z,66.55
2017-04-27T00:35:47.884Z,66.94
2017-04-27T00:36:13.982Z,66.52
2017-04-27T00:36:40.113Z,67.38
2017-04-27T00:37:06.224Z,67.03
2017-04-27T00:37:32.317Z,66.8
2017-04-27T00:37:58.521Z,67.09
2017-04-27T00:38:24.634Z,67.09
2017-04-27T00:38:50.746Z,67
2017-04-27T00:39:16.852Z,67.13
2017-04-27T00:39:42.973Z,67.09
2017-04-27T00:40:09.086Z,67.03
2017-04-27T00:40:35.188Z,67.13
2017-04-27T00:41:01.312Z,67.19
2017-04-27T00:41:27.399Z,66.42
2017-04-27T00:41:53.497Z,66.55
2017-04-27T00:42:19.602Z,66.17
2017-04-27T00:42:45.688Z,66.24
2017-04-27T00:43:11.835Z,66.14
2017-04-27T00:43:37.940Z,67.28
2017-04-27T00:44:04.027Z,67.47
2017-04-27T00:44:30.123Z,67.38
2017-04-27T00:44:56.241Z,67.19
2017-04-27T00:45:22.366Z,67.19
2017-04-27T00:45:48.497Z,67.13
2017-04-27T00:46:14.583Z,67.09
2017-04-27T00:46:40.706Z,67.03
2017-04-27T00:47:06.893Z,67.09
2017-04-27T00:47:32.980Z,67.13
2017-04-27T00:47:59.098Z,67.03
2017-04-27T00:48:25.303Z,67.13
2017-04-27T00:48:51.394Z,67.03
2017-04-27T00:49:17.505Z,67.09
2017-04-27T00:49:43.642Z,67
2017-04-27T00:50:09.737Z,67.22
2017-04-27T00:50:35.835Z,66.61
2017-04-27T00:51:01.922Z,67.38
2017-04-27T00:51:28.015Z,67.41
2017-04-27T00:51:54.121Z,66.65
2017-04-27T00:52:20.210Z,66.55
2017-04-27T00:52:46.299Z,66.55
2017-04-27T00:53:12.460Z,66.46
2017-04-27T00:53:38.608Z,66.42
2017-04-27T00:54:04.695Z,66.55
2017-04-27T00:54:30.799Z,66.74
2017-04-27T00:54:56.896Z,66.55
2017-04-27T00:55:22.983Z,66.46
2017-04-27T00:55:49.110Z,66.65
2017-04-27T00:56:15.196Z,66.74
2017-04-27T00:56:41.330Z,66.65
2017-04-27T00:57:07.479Z,66.55
2017-04-27T00:57:33.568Z,66.36
2017-04-27T00:57:59.730Z,66.74
2017-04-27T00:58:25.882Z,66.36
2017-04-27T00:58:52.022Z,66.74
2017-04-27T00:59:18.174Z,66.46
2017-04-27T00:59:44.332Z,66.46
2017-04-27T01:00:10.465Z,66.17
2017-04-27T01:00:36.563Z,66.46
2017-04-27T01:01:02.667Z,66.46
2017-04-27T01:01:28.754Z,66.74
2017-04-27T01:01:54.973Z,66.55
2017-04-27T01:02:21.131Z,66.46
2017-04-27T01:02:47.298Z,66.74
2017-04-27T01:03:13.462Z,66.74
2017-04-27T01:03:39.598Z,66.61
2017-04-27T01:04:05.718Z,66.42
2017-04-27T01:04:31.829Z,66.55
2017-04-27T01:04:58.112Z,66.46
2017-04-27T01:05:24.261Z,66.65
2017-04-27T01:05:50.352Z,66.74
2017-04-27T01:06:16.554Z,66.74
2017-04-27T01:06:42.715Z,66.55
2017-04-27T01:07:08.855Z,66.74
2017-04-27T01:07:34.951Z,66.55
2017-04-27T01:08:01.088Z,66.74
2017-04-27T01:08:27.193Z,66.55
2017-04-27T01:08:53.403Z,66.55
2017-04-27T01:09:19.562Z,66.17
2017-04-27T01:09:45.688Z,66.61
2017-04-27T01:10:11.819Z,66.74
2017-04-27T01:10:37.904Z,66.71
2017-04-27T01:11:04.002Z,66.42
2017-04-27T01:11:30.134Z,66.24
2017-04-27T01:11:56.221Z,66.17
2017-04-27T01:12:22.361Z,66.42
2017-04-27T01:12:48.509Z,66.46
2017-04-27T01:13:14.662Z,66.36
2017-04-27T01:13:40.790Z,66.36
2017-04-27T01:14:06.950Z,66.46
2017-04-27T01:14:33.128Z,66.65
2017-04-27T01:14:59.202Z,66.46
2017-04-27T01:15:25.316Z,66.65
2017-04-27T01:15:51.437Z,66.46
2017-04-27T01:16:17.598Z,66.74
2017-04-27T01:16:43.713Z,66.46
2017-04-27T01:17:09.800Z,66.55
2017-04-27T01:17:35.907Z,66.46
2017-04-27T01:18:02.026Z,66.74
2017-04-27T01:18:28.129Z,66.46
2017-04-27T01:18:54.241Z,66.27
2017-04-27T01:19:20.385Z,66.46
2017-04-27T01:19:46.487Z,66.46
2017-04-27T01:20:12.629Z,66.36
2017-04-27T01:20:38.719Z,66.27
2017-04-27T01:21:04.854Z,66.27
2017-04-27T01:21:30.998Z,66.36
2017-04-27T01:21:57.134Z,65.99
2017-04-27T01:22:23.263Z,66.65
2017-04-27T01:22:49.360Z,66.36
2017-04-27T01:23:15.450Z,66.27
2017-04-27T01:23:41.603Z,66.55
2017-04-27T01:24:07.712Z,66.27
2017-04-27T01:24:33.818Z,66.36
2017-04-27T01:24:59.937Z,66.27
2017-04-27T01:25:26.076Z,66.08
2017-04-27T01:25:52.211Z,65.89
2017-04-27T01:26:18.333Z,66.08
2017-04-27T01:26:44.519Z,65.8
2017-04-27T01:27:10.645Z,66.08
2017-04-27T01:27:36.801Z,66.08
2017-04-27T01:28:02.963Z,65.99
2017-04-27T01:28:29.063Z,66.08
2017-04-27T01:28:55.220Z,65.99
2017-04-27T01:29:21.361Z,65.8
2017-04-27T01:29:47.543Z,65.99
2017-04-27T01:30:13.678Z,66.08
2017-04-27T01:30:39.780Z,66.17
2017-04-27T01:31:05.884Z,66.08
2017-04-27T01:31:31.992Z,65.89
2017-04-27T01:31:58.115Z,66.17
2017-04-27T01:32:24.246Z,65.89
2017-04-27T01:32:50.385Z,66.17
2017-04-27T01:33:16.503Z,65.99
2017-04-27T01:33:42.663Z,65.99
2017-04-27T01:34:08.803Z,66.08
2017-04-27T01:34:34.917Z,65.99
2017-04-27T01:35:01.077Z,65.99
2017-04-27T01:35:27.171Z,65.89
2017-04-27T01:35:53.276Z,66.08
2017-04-27T01:36:19.388Z,66.08
2017-04-27T01:36:45.483Z,66.08
2017-04-27T01:37:11.586Z,66.08
2017-04-27T01:37:37.676Z,65.89
2017-04-27T01:38:03.814Z,66.17
2017-04-27T01:38:29.921Z,66.17
2017-04-27T01:38:56.044Z,65.99
2017-04-27T01:39:22.182Z,65.99
2017-04-27T01:39:48.340Z,65.89
2017-04-27T01:40:14.493Z,65.99
2017-04-27T01:40:40.591Z,65.89
2017-04-27T01:41:06.708Z,66.08
2017-04-27T01:41:32.797Z,65.8
2017-04-27T01:41:58.907Z,65.89
2017-04-27T01:42:25.026Z,65.99
2017-04-27T01:42:51.163Z,66.08
2017-04-27T01:43:17.319Z,66.08
2017-04-27T01:43:43.473Z,65.89
2017-04-27T01:44:09.585Z,65.89
2017-04-27T01:44:35.733Z,65.7
2017-04-27T01:45:01.865Z,66.36
2017-04-27T01:45:27.947Z,66.08
2017-04-27T01:45:54.044Z,66.08
2017-04-27T01:46:20.149Z,66.17
2017-04-27T01:46:46.234Z,66.55
2017-04-27T01:47:12.329Z,66.55
2017-04-27T01:47:38.430Z,66.46
2017-04-27T01:48:04.573Z,66.27
2017-04-27T01:48:30.687Z,66.27
2017-04-27T01:48:56.824Z,65.8
2017-04-27T01:49:22.945Z,65.8
2017-04-27T01:49:49.058Z,66.17
2017-04-27T01:50:15.160Z,66.08
2017-04-27T01:50:41.281Z,65.99
2017-04-27T01:51:07.419Z,65.89
2017-04-27T01:51:33.520Z,65.89
2017-04-27T01:51:59.608Z,65.7
2017-04-27T01:52:25.741Z,65.99
2017-04-27T01:52:51.836Z,65.89
2017-04-27T01:53:17.921Z,65.8
2017-04-27T01:53:44.050Z,66.08
2017-04-27T01:54:10.204Z,65.89
2017-04-27T01:54:36.317Z,65.89
2017-04-27T01:55:02.544Z,65.99
2017-04-27T01:55:28.647Z,65.89
2017-04-27T01:55:54.730Z,65.8
2017-04-27T01:56:20.974Z,65.7
2017-04-27T01:56:47.107Z,65.89
2017-04-27T01:57:13.222Z,66.08
2017-04-27T01:57:39.323Z,65.7
2017-04-27T01:58:05.460Z,66.08
2017-04-27T01:58:31.640Z,65.7
2017-04-27T01:58:57.743Z,65.99
2017-04-27T01:59:23.827Z,66.08
2017-04-27T01:59:49.921Z,66.08
2017-04-27T02:00:16.051Z,65.89
2017-04-27T02:00:42.163Z,65.8
2017-04-27T02:01:08.257Z,66.17
2017-04-27T02:01:34.383Z,65.99
2017-04-27T02:02:00.530Z,66.27
2017-04-27T02:02:26.641Z,65.99
2017-04-27T02:02:52.827Z,65.99
2017-04-27T02:03:18.950Z,65.8
2017-04-27T02:03:45.109Z,66.61
2017-04-27T02:04:11.248Z,66.55
2017-04-27T02:04:37.441Z,66.61
2017-04-27T02:05:03.575Z,66.17
2017-04-27T02:05:29.666Z,66.05
2017-04-27T02:05:55.803Z,66.24
2017-04-27T02:06:21.936Z,66.24
2017-04-27T02:06:48.030Z,65.86
2017-04-27T02:07:14.118Z,65.89
2017-04-27T02:07:40.252Z,66.61
2017-04-27T02:08:06.375Z,66.36
2017-04-27T02:08:32.551Z,66.24
2017-04-27T02:08:58.722Z,66.52
2017-04-27T02:09:24.858Z,66.55
2017-04-27T02:09:50.995Z,66.33
2017-04-27T02:10:17.089Z,66.52
2017-04-27T02:10:43.226Z,66.24
2017-04-27T02:11:09.356Z,66.65
2017-04-27T02:11:35.510Z,66.74
2017-04-27T02:12:01.643Z,65.99
2017-04-27T02:12:27.745Z,66.42
2017-04-27T02:12:53.901Z,66.65
2017-04-27T02:13:20.037Z,66.27
2017-04-27T02:13:46.212Z,66.36
2017-04-27T02:14:12.355Z,66.14
2017-04-27T02:14:38.459Z,66.42
2017-04-27T02:15:04.612Z,66.24
2017-04-27T02:15:30.726Z,66.42
2017-04-27T02:15:56.849Z,66.46
2017-04-27T02:16:22.951Z,66.42
2017-04-27T02:16:49.035Z,66.42
2017-04-27T02:17:15.133Z,66.24
2017-04-27T02:17:41.266Z,66.52
2017-04-27T02:18:07.375Z,66.33
2017-04-27T02:18:33.568Z,66.36
2017-04-27T02:18:59.672Z,66.46
2017-04-27T02:19:25.818Z,66.27
2017-04-27T02:19:51.919Z,66.27
2017-04-27T02:20:18.031Z,66.65
2017-04-27T02:20:44.127Z,65.99
2017-04-27T02:21:10.230Z,66.27
2017-04-27T02:21:36.317Z,66.24
2017-04-27T02:22:02.436Z,66.05
2017-04-27T02:22:28.537Z,66.14
2017-04-27T02:22:54.630Z,66.42
2017-04-27T02:23:20.718Z,66.65
2017-04-27T02:23:46.876Z,65.99
2017-04-27T02:24:12.997Z,66.05
2017-04-27T02:24:39.132Z,66.14
2017-04-27T02:25:05.295Z,65.86
2017-04-27T02:25:31.385Z,65.76
2017-04-27T02:25:57.489Z,65.8
2017-04-27T02:26:23.579Z,65.99
2017-04-27T02:26:49.689Z,66.05
2017-04-27T02:27:15.796Z,66.27
2017-04-27T02:27:41.914Z,66.65
2017-04-27T02:28:08.024Z,66.33
2017-04-27T02:28:34.180Z,66.33
2017-04-27T02:29:00.332Z,66.24
2017-04-27T02:29:26.469Z,66.61
2017-04-27T02:29:52.596Z,66.33
2017-04-27T02:30:18.754Z,66.33
2017-04-27T02:30:44.866Z,66.46
2017-04-27T02:31:10.962Z,66.24
2017-04-27T02:31:37.064Z,66.61
2017-04-27T02:32:03.153Z,66.8
2017-04-27T02:32:29.270Z,66.71
2017-04-27T02:32:55.375Z,66.71
2017-04-27T02:33:21.488Z,66.71
2017-04-27T02:33:47.601Z,66.61
2017-04-27T02:34:13.734Z,66.42
2017-04-27T02:34:39.857Z,66.71
2017-04-27T02:35:05.970Z,66.71
2017-04-27T02:35:32.072Z,66.61
2017-04-27T02:35:58.169Z,66.42
2017-04-27T02:36:24.289Z,66.42
2017-04-27T02:36:50.379Z,66.14
2017-04-27T02:37:16.490Z,66.42
2017-04-27T02:37:42.601Z,66.33
2017-04-27T02:38:08.694Z,66.42
2017-04-27T02:38:34.809Z,66.42
2017-04-27T02:39:00.990Z,66.52
2017-04-27T02:39:27.115Z,66.42
2017-04-27T02:39:53.277Z,66.52
2017-04-27T02:40:19.399Z,66.61
2017-04-27T02:40:45.531Z,66.52
2017-04-27T02:41:11.644Z,66.42
2017-04-27T02:41:37.738Z,66.71
2017-04-27T02:42:03.853Z,66.71
2017-04-27T02:42:29.986Z,66.61
2017-04-27T02:42:56.108Z,66.14
2017-04-27T02:43:22.199Z,66.52
2017-04-27T02:43:48.373Z,66.42
2017-04-27T02:44:14.559Z,66.14
2017-04-27T02:44:40.669Z,66.42
2017-04-27T02:45:06.765Z,66.42
2017-04-27T02:45:32.921Z,66.52
2017-04-27T02:45:58.983Z,66.05
2017-04-27T02:46:25.080Z,66.71
2017-04-27T02:46:51.178Z,66.9
2017-04-27T02:47:17.295Z,66.9
2017-04-27T02:47:43.399Z,67.28
2017-04-27T02:48:09.535Z,67.09
2017-04-27T02:48:35.658Z,67.09
2017-04-27T02:49:01.790Z,67
2017-04-27T02:49:27.905Z,67.19
2017-04-27T02:49:54.047Z,67.09
2017-04-27T02:50:20.151Z,67.38
2017-04-27T02:50:46.241Z,67.38
2017-04-27T02:51:12.378Z,67.94
2017-04-27T02:51:38.516Z,67.94
2017-04-27T02:52:04.608Z,67.94
2017-04-27T02:52:30.721Z,67.76
2017-04-27T02:52:56.855Z,68.23
2017-04-27T02:53:22.972Z,68.04
2017-04-27T02:53:49.130Z,68.04
2017-04-27T02:54:15.301Z,67.85
2017-04-27T02:54:41.389Z,67.94
2017-04-27T02:55:07.575Z,68.23
2017-04-27T02:55:33.669Z,68.23
2017-04-27T02:55:59.780Z,68.04
2017-04-27T02:56:25.910Z,67.76
2017-04-27T02:56:52.034Z,68.13
2017-04-27T02:57:18.146Z,67.85
2017-04-27T02:57:44.303Z,67.76
2017-04-27T02:58:10.434Z,67.66
2017-04-27T02:58:36.577Z,67.38
2017-04-27T02:59:02.725Z,67.47
2017-04-27T02:59:28.861Z,67.38
2017-04-27T02:59:54.993Z,67.47
2017-04-27T03:00:21.115Z,67.76
2017-04-27T03:00:47.204Z,67.76
2017-04-27T03:01:13.305Z,67.94
2017-04-27T03:01:39.408Z,67.85
2017-04-27T03:02:05.562Z,67.85
2017-04-27T03:02:31.644Z,68.04
2017-04-27T03:02:57.861Z,68.04
2017-04-27T03:03:24.002Z,67.76
2017-04-27T03:03:50.168Z,67.85
2017-04-27T03:04:16.259Z,67.85
2017-04-27T03:04:42.361Z,67.94
2017-04-27T03:05:08.491Z,67.85
2017-04-27T03:05:34.577Z,67.66
2017-04-27T03:06:00.671Z,67.47
2017-04-27T03:06:26.775Z,67.38
2017-04-27T03:06:52.862Z,67.28
2017-04-27T03:07:19.007Z,67.66
2017-04-27T03:07:45.108Z,67.47
2017-04-27T03:08:11.227Z,67.76
2017-04-27T03:08:37.342Z,67.85
2017-04-27T03:09:03.497Z,67.85
2017-04-27T03:09:29.617Z,67.76
2017-04-27T03:09:55.718Z,68.04
2017-04-27T03:10:21.809Z,67.85
2017-04-27T03:10:47.952Z,67.76
2017-04-27T03:11:14.084Z,68.04
2017-04-27T03:11:40.175Z,68.04
2017-04-27T03:12:06.262Z,68.04
2017-04-27T03:12:32.419Z,67.85
2017-04-27T03:12:58.594Z,67.76
2017-04-27T03:13:24.708Z,67.85
2017-04-27T03:13:50.839Z,68.04
2017-04-27T03:14:16.966Z,67.57
2017-04-27T03:14:43.101Z,67.38
2017-04-27T03:15:09.251Z,67.57
2017-04-27T03:15:35.380Z,67.38
2017-04-27T03:16:01.488Z,67.38
2017-04-27T03:16:27.637Z,67.66
2017-04-27T03:16:53.740Z,67.38
2017-04-27T03:17:19.832Z,67.66
2017-04-27T03:17:45.945Z,67.47
2017-04-27T03:18:12.129Z,67.85
2017-04-27T03:18:38.244Z,67.85
2017-04-27T03:19:04.407Z,68.13
2017-04-27T03:19:30.564Z,67.76
2017-04-27T03:19:56.658Z,68.04
2017-04-27T03:20:22.745Z,67.76
2017-04-27T03:20:48.847Z,68.04
2017-04-27T03:21:14.940Z,68.04
2017-04-27T03:21:41.041Z,68.23
2017-04-27T03:22:07.179Z,67.82
2017-04-27T03:22:33.265Z,67.63
2017-04-27T03:22:59.399Z,67.94
2017-04-27T03:23:25.494Z,68.13
2017-04-27T03:23:51.631Z,68.33
2017-04-27T03:24:17.759Z,68.39
2017-04-27T03:24:43.882Z,68.23
2017-04-27T03:25:09.969Z,67.85
2017-04-27T03:25:36.068Z,67.66
2017-04-27T03:26:02.197Z,68.04
2017-04-27T03:26:28.286Z,67.94
2017-04-27T03:26:54.405Z,68.01
2017-04-27T03:27:20.494Z,67.94
2017-04-27T03:27:46.682Z,67.85
2017-04-27T03:28:12.833Z,68.04
2017-04-27T03:28:38.946Z,67.94
2017-04-27T03:29:05.091Z,67.91
2017-04-27T03:29:31.222Z,68.04
2017-04-27T03:29:57.332Z,67.85
2017-04-27T03:30:23.453Z,67.76
2017-04-27T03:30:49.612Z,67.82
2017-04-27T03:31:15.700Z,67.82
2017-04-27T03:31:41.794Z,68.04
2017-04-27T03:32:07.941Z,67.94
2017-04-27T03:32:34.043Z,68.01
2017-04-27T03:33:00.230Z,67.63
2017-04-27T03:33:26.339Z,67.82
2017-04-27T03:33:52.514Z,68.01
2017-04-27T03:34:18.644Z,67.53
2017-04-27T03:34:44.759Z,67.94
2017-04-27T03:35:10.903Z,68.04
2017-04-27T03:35:37.008Z,67.91
2017-04-27T03:36:03.097Z,67.91
2017-04-27T03:36:29.185Z,67.91
2017-04-27T03:36:55.290Z,68.1
2017-04-27T03:37:21.410Z,68.13
2017-04-27T03:37:47.564Z,67.94
2017-04-27T03:38:13.704Z,68.39
2017-04-27T03:38:39.846Z,68.19
2017-04-27T03:39:05.976Z,67.91
2017-04-27T03:39:32.093Z,67.91
2017-04-27T03:39:58.206Z,67.63
2017-04-27T03:40:24.337Z,68.01
2017-04-27T03:40:50.459Z,68.01
2017-04-27T03:41:16.619Z,67.82
2017-04-27T03:41:42.721Z,67.85
2017-04-27T03:42:08.817Z,67.72
2017-04-27T03:42:34.904Z,68.39
2017-04-27T03:43:01.053Z,68.48
2017-04-27T03:43:27.165Z,68.48
2017-04-27T03:43:53.351Z,68.58
2017-04-27T03:44:19.472Z,68.39
2017-04-27T03:44:45.607Z,68.29
2017-04-27T03:45:11.739Z,68.58
2017-04-27T03:45:37.863Z,68.67
2017-04-27T03:46:03.950Z,68.48
2017-04-27T03:46:30.050Z,68.86
2017-04-27T03:46:56.180Z,68.29
2017-04-27T03:47:22.291Z,68.58
2017-04-27T03:47:48.439Z,68.48
2017-04-27T03:48:14.595Z,68.29
2017-04-27T03:48:40.732Z,68.48
2017-04-27T03:49:06.859Z,68.48
2017-04-27T03:49:33.020Z,68.48
2017-04-27T03:49:59.143Z,68.39
2017-04-27T03:50:25.273Z,68.52
2017-04-27T03:50:51.384Z,68.48
2017-04-27T03:51:17.503Z,68.29
2017-04-27T03:51:43.605Z,68.58
2017-04-27T03:52:09.694Z,68.58
2017-04-27T03:52:35.812Z,68.48
2017-04-27T03:53:01.994Z,68.29
2017-04-27T03:53:28.111Z,68.48
2017-04-27T03:53:54.249Z,68.48
2017-04-27T03:54:20.349Z,68.48
2017-04-27T03:54:46.444Z,68.67
2017-04-27T03:55:12.601Z,68.77
2017-04-27T03:55:38.688Z,68.58
2017-04-27T03:56:04.803Z,68.96
2017-04-27T03:56:30.933Z,68.67
2017-04-27T03:56:57.026Z,68.77
2017-04-27T03:57:23.112Z,68.67
2017-04-27T03:57:49.301Z,68.58
2017-04-27T03:58:15.444Z,68.67
2017-04-27T03:58:41.560Z,68.39
2017-04-27T03:59:07.688Z,68.48
2017-04-27T03:59:33.840Z,68.39
2017-04-27T03:59:59.926Z,68.58
2017-04-27T04:00:26.047Z,68.77
2017-04-27T04:00:52.151Z,68.86
2017-04-27T04:01:18.233Z,68.67
2017-04-27T04:01:44.356Z,68.39
2017-04-27T04:02:10.460Z,68.48
2017-04-27T04:02:36.568Z,68.48
2017-04-27T04:03:02.709Z,68.39
2017-04-27T04:03:28.865Z,68.48
2017-04-27T04:03:54.954Z,68.39
2017-04-27T04:04:21.068Z,68.39
2017-04-27T04:04:47.147Z,68.29
2017-04-27T04:05:13.268Z,68.29
2017-04-27T04:05:39.367Z,68.48
2017-04-27T04:06:05.457Z,68.48
2017-04-27T04:06:31.575Z,68.48
2017-04-27T04:06:57.706Z,68.29
2017-04-27T04:07:23.826Z,68.67
2017-04-27T04:07:49.912Z,68.58
2017-04-27T04:08:16.020Z,68.29
2017-04-27T04:08:42.172Z,68.48
2017-04-27T04:09:08.306Z,68.39
2017-04-27T04:09:34.461Z,68.39
2017-04-27T04:10:00.558Z,68.19
2017-04-27T04:10:26.645Z,68.48
2017-04-27T04:10:52.801Z,68.58
2017-04-27T04:11:18.887Z,68.77
2017-04-27T04:11:45.049Z,68.77
2017-04-27T04:12:11.142Z,68.77
2017-04-27T04:12:37.228Z,68.39
2017-04-27T04:13:03.358Z,68.67
2017-04-27T04:13:29.482Z,68.48
2017-04-27T04:13:55.568Z,68.86
2017-04-27T04:14:21.697Z,68.77
2017-04-27T04:14:47.828Z,68.77
2017-04-27T04:15:13.988Z,68.77
2017-04-27T04:15:40.084Z,68.86
2017-04-27T04:16:06.241Z,68.67
2017-04-27T04:16:32.353Z,68.58
2017-04-27T04:16:58.502Z,68.58
2017-04-27T04:17:24.639Z,68.96
2017-04-27T04:17:50.740Z,68.58
2017-04-27T04:18:16.844Z,68.96
2017-04-27T04:18:43.004Z,68.77
2017-04-27T04:19:09.121Z,68.86
2017-04-27T04:19:35.308Z,68.77
2017-04-27T04:20:01.449Z,69.05
2017-04-27T04:20:27.537Z,69.43
2017-04-27T04:20:53.668Z,69.24
2017-04-27T04:21:19.785Z,69.05
2017-04-27T04:21:45.873Z,68.86
2017-04-27T04:22:11.974Z,68.86
2017-04-27T04:22:38.099Z,69.24
2017-04-27T04:23:04.228Z,69.24
2017-04-27T04:23:30.339Z,69.24
2017-04-27T04:23:56.506Z,69.15
2017-04-27T04:24:22.663Z,69.34
2017-04-27T04:24:48.780Z,69.43
2017-04-27T04:25:14.916Z,69.34
2017-04-27T04:25:41.024Z,69.34
2017-04-27T04:26:07.145Z,69.05
2017-04-27T04:26:33.255Z,69.24
2017-04-27T04:26:59.358Z,68.96
2017-04-27T04:27:25.511Z,69.24
2017-04-27T04:27:51.658Z,68.96
2017-04-27T04:28:17.778Z,69.24
2017-04-27T04:28:43.891Z,69.24
2017-04-27T04:29:10.056Z,69.24
2017-04-27T04:29:36.197Z,69.05
2017-04-27T04:30:02.360Z,68.96
2017-04-27T04:30:28.462Z,69.05
2017-04-27T04:30:54.559Z,69.24
2017-04-27T04:31:20.647Z,69.15
2017-04-27T04:31:46.745Z,68.86
2017-04-27T04:32:12.844Z,68.48
2017-04-27T04:32:38.931Z,68.67
2017-04-27T04:33:05.078Z,69.15
2017-04-27T04:33:31.193Z,69.05
2017-04-27T04:33:57.324Z,68.77
2017-04-27T04:34:23.449Z,68.77
2017-04-27T04:34:49.561Z,68.77
2017-04-27T04:35:15.685Z,69.05
2017-04-27T04:35:41.841Z,69.05
2017-04-27T04:36:07.949Z,69.05
2017-04-27T04:36:34.047Z,68.48
2017-04-27T04:37:00.178Z,68.67
2017-04-27T04:37:26.265Z,68.48
2017-04-27T04:37:52.407Z,68.86
2017-04-27T04:38:18.573Z,68.86
2017-04-27T04:38:44.695Z,68.67
2017-04-27T04:39:10.867Z,68.77
2017-04-27T04:39:36.950Z,68.77
2017-04-27T04:40:03.095Z,68.58
2017-04-27T04:40:29.223Z,69.05
2017-04-27T04:40:55.309Z,68.77
2017-04-27T04:41:21.402Z,69.05
2017-04-27T04:41:47.532Z,68.77
2017-04-27T04:42:13.650Z,68.96
2017-04-27T04:42:39.734Z,68.86
2017-04-27T04:43:05.868Z,68.67
2017-04-27T04:43:31.988Z,68.77
2017-04-27T04:43:58.099Z,68.58
2017-04-27T04:44:24.259Z,68.77
2017-04-27T04:44:50.382Z,68.86
2017-04-27T04:45:16.494Z,68.67
2017-04-27T04:45:42.621Z,68.77
2017-04-27T04:46:08.754Z,68.58
2017-04-27T04:46:34.838Z,68.58
2017-04-27T04:47:00.938Z,68.48
2017-04-27T04:47:27.098Z,68.77
2017-04-27T04:47:53.234Z,69.05
2017-04-27T04:48:19.402Z,68.48
2017-04-27T04:48:45.561Z,68.77
2017-04-27T04:49:11.681Z,68.77
2017-04-27T04:49:37.791Z,68.96
2017-04-27T04:50:03.950Z,68.86
2017-04-27T04:50:30.048Z,68.58
2017-04-27T04:50:56.152Z,68.67
2017-04-27T04:51:22.266Z,68.86
2017-04-27T04:51:48.386Z,68.96
2017-04-27T04:52:14.543Z,69.09
2017-04-27T04:52:40.659Z,69.15
2017-04-27T04:53:06.772Z,68.77
2017-04-27T04:53:32.934Z,68.86
2017-04-27T04:53:59.056Z,68.48
2017-04-27T04:54:25.170Z,68.29
2017-04-27T04:54:51.295Z,68.77
2017-04-27T04:55:17.417Z,68.58
2017-04-27T04:55:43.539Z,68.96
2017-04-27T04:56:09.652Z,68.99
2017-04-27T04:56:35.741Z,68.67
2017-04-27T04:57:01.848Z,68.71
2017-04-27T04:57:27.993Z,68.39
2017-04-27T04:57:54.105Z,68.48
2017-04-27T04:58:20.237Z,68.61
2017-04-27T04:58:46.392Z,68.52
2017-04-27T04:59:12.528Z,68.42
2017-04-27T04:59:38.681Z,68.61
2017-04-27T05:00:04.812Z,68.61
2017-04-27T05:00:30.947Z,68.52
2017-04-27T05:00:57.047Z,68.52
2017-04-27T05:01:23.137Z,67.94
2017-04-27T05:01:49.270Z,68.33
2017-04-27T05:02:15.393Z,68.33
2017-04-27T05:02:41.554Z,68.71
2017-04-27T05:03:07.680Z,68.52
2017-04-27T05:03:33.810Z,68.52
2017-04-27T05:03:59.921Z,68.8
2017-04-27T05:04:26.069Z,68.42
2017-04-27T05:04:52.222Z,68.04
2017-04-27T05:05:18.360Z,67.66
2017-04-27T05:05:44.453Z,67.85
2017-04-27T05:06:10.557Z,68.23
2017-04-27T05:06:36.670Z,67.94
2017-04-27T05:07:02.831Z,68.04
2017-04-27T05:07:28.911Z,68.13
2017-04-27T05:07:55.035Z,67.94
2017-04-27T05:08:21.194Z,67.85
2017-04-27T05:08:47.332Z,67.94
2017-04-27T05:09:13.477Z,67.85
2017-04-27T05:09:39.607Z,67.85
2017-04-27T05:10:05.723Z,67.85
2017-04-27T05:10:31.813Z,67.38
2017-04-27T05:10:57.944Z,67.09
2017-04-27T05:11:24.035Z,67.09
2017-04-27T05:11:50.120Z,67.09
2017-04-27T05:12:16.224Z,67.66
2017-04-27T05:12:42.340Z,67.66
2017-04-27T05:13:08.501Z,67.47
2017-04-27T05:13:34.617Z,67.94
2017-04-27T05:14:00.731Z,67.85
2017-04-27T05:14:26.868Z,67.85
2017-04-27T05:14:52.990Z,68.33
2017-04-27T05:15:19.101Z,68.23
2017-04-27T05:15:45.228Z,68.04
2017-04-27T05:16:11.350Z,67.94
2017-04-27T05:16:37.441Z,67.76
2017-04-27T05:17:03.540Z,68.04
2017-04-27T05:17:29.643Z,67.47
2017-04-27T05:17:55.783Z,67.47
2017-04-27T05:18:21.904Z,67
2017-04-27T05:18:48.017Z,67.28
2017-04-27T05:19:14.205Z,67
2017-04-27T05:19:40.301Z,67.28
2017-04-27T05:20:06.436Z,67.09
2017-04-27T05:20:32.565Z,67
2017-04-27T05:20:58.695Z,67
2017-04-27T05:21:24.779Z,67.28
2017-04-27T05:21:50.879Z,67.38
2017-04-27T05:22:16.980Z,67.38
2017-04-27T05:22:43.092Z,67.57
2017-04-27T05:23:09.211Z,67.19
2017-04-27T05:23:35.306Z,67.47
2017-04-27T05:24:01.490Z,66.9
2017-04-27T05:24:27.648Z,66.8
2017-04-27T05:24:53.811Z,67.09
2017-04-27T05:25:19.904Z,67.28
2017-04-27T05:25:46.006Z,67
2017-04-27T05:26:12.095Z,67
2017-04-27T05:26:38.187Z,67.09
2017-04-27T05:27:04.319Z,67
2017-04-27T05:27:30.486Z,67.09
2017-04-27T05:27:56.651Z,67.09
2017-04-27T05:28:22.782Z,66.9
2017-04-27T05:28:48.905Z,66.8
2017-04-27T05:29:15.044Z,67
2017-04-27T05:29:41.200Z,67
2017-04-27T05:30:07.353Z,67.09
2017-04-27T05:30:33.443Z,67
2017-04-27T05:30:59.568Z,67
2017-04-27T05:31:25.701Z,67.19
2017-04-27T05:31:51.810Z,67
2017-04-27T05:32:17.906Z,66.8
2017-04-27T05:32:44.039Z,66.8
2017-04-27T05:33:10.127Z,67
2017-04-27T05:33:36.247Z,67.09
2017-04-27T05:34:02.376Z,67
2017-04-27T05:34:28.493Z,66.9
2017-04-27T05:34:54.653Z,67.09
2017-04-27T05:35:20.789Z,67.09
2017-04-27T05:35:46.854Z,67
2017-04-27T05:36:12.958Z,67.19
2017-04-27T05:36:39.046Z,66.9
2017-04-27T05:37:05.140Z,67.09
2017-04-27T05:37:31.238Z,67